SBBR Airport Information

Runway Information
Runway 11L Length 10499 ft width 148 ft
Elevation 3448 ft Threshold 0 ft Heading 87
Runway 29R Length 10499 ft Width 148 ft
Elevation 3479 ft Threshold 0 ft Heading 267
Runway 11R Length 10827 ft width 148 ft
Elevation 3497 ft Threshold 0 ft Heading 87
Runway 29L Length 10827 ft Width 148 ft
Elevation 3417 ft Threshold 0 ft Heading 267
Airport Frequencies
Type APP Name BRASILIA A Frequency 119.2 MHZ
Type ATIS Name BRASILIA A Frequency 127.8 MHZ
Type CLD Name BRASILIA C Frequency 121.8 MHZ
Type GND Name GND Frequency 121.8 MHZ
Type OPS Name BRASILIA O Frequency 122.5 MHZ
Type PMSV Name BRASILIA M Frequency 132.6 MHZ
Type TWR Name BRASILIA T Frequency 118.45 MHZ
Airport Navaids
Type VOR-DME Name Brasilia Frequency 115900 KHZ
Type NDB Name Brasilia Frequency 340 KHZ
Type NDB Name Cocho Frequency 240 KHZ
Type NDB Name Trevo Frequency 280 KHZ
Type VOR Name Gama Frequency 117300 KHZ
Airport Weather Information & NOTAM
ADDS - METARS form results

(0633 UTC 22 April 2018)
 
METAR text: SBBR 220600Z 00000KT CAVOK 15/14 Q1017
Conditions at: SBBR (BRASILIA (CIV/MI, BR) observed 0600 UTC 22 April 2018
Temperature: 15.0°C (59°F)
Dewpoint: 14.0°C (57°F) [RH = 94%]
Pressure (altimeter): 30.03 inches Hg (1017.0 mb)
Winds: calm
Visibility: 6 or more miles (10+ km)
Ceiling: ceiling and visibility are OK
Clouds: unknown
Weather: no significant weather observed at this time